sensor_id;sensor_type;location;lat;lon;timestamp;temperature;humidity
53962;DHT22;39868;53.398;6.564;2023-09-08T00:00:34;22.60;68.20
53962;DHT22;39868;53.398;6.564;2023-09-08T00:03:01;22.60;68.30
53962;DHT22;39868;53.398;6.564;2023-09-08T00:05:30;22.60;68.30
53962;DHT22;39868;53.398;6.564;2023-09-08T00:07:57;22.60;68.30
53962;DHT22;39868;53.398;6.564;2023-09-08T00:10:24;22.60;68.30
53962;DHT22;39868;53.398;6.564;2023-09-08T00:12:52;22.50;68.30
53962;DHT22;39868;53.398;6.564;2023-09-08T00:15:19;22.50;68.40
53962;DHT22;39868;53.398;6.564;2023-09-08T00:17:47;22.50;68.40
53962;DHT22;39868;53.398;6.564;2023-09-08T00:20:14;22.40;68.40
53962;DHT22;39868;53.398;6.564;2023-09-08T00:22:42;22.40;68.40
53962;DHT22;39868;53.398;6.564;2023-09-08T00:25:09;22.30;68.40
53962;DHT22;39868;53.398;6.564;2023-09-08T00:27:37;22.30;68.50
53962;DHT22;39868;53.398;6.564;2023-09-08T00:30:05;22.30;68.60
53962;DHT22;39868;53.398;6.564;2023-09-08T00:32:33;22.20;68.60
53962;DHT22;39868;53.398;6.564;2023-09-08T00:35:01;22.20;68.70
53962;DHT22;39868;53.398;6.564;2023-09-08T00:37:28;22.10;68.70
53962;DHT22;39868;53.398;6.564;2023-09-08T00:39:55;22.10;68.90
53962;DHT22;39868;53.398;6.564;2023-09-08T00:42:23;22.10;69.00
53962;DHT22;39868;53.398;6.564;2023-09-08T00:44:50;22.00;69.00
53962;DHT22;39868;53.398;6.564;2023-09-08T00:47:18;22.00;69.10
53962;DHT22;39868;53.398;6.564;2023-09-08T00:49:45;22.00;69.20
53962;DHT22;39868;53.398;6.564;2023-09-08T00:52:13;21.90;69.30
53962;DHT22;39868;53.398;6.564;2023-09-08T00:54:41;22.00;69.40
53962;DHT22;39868;53.398;6.564;2023-09-08T00:57:09;21.90;69.40
53962;DHT22;39868;53.398;6.564;2023-09-08T00:59:37;21.90;69.50
53962;DHT22;39868;53.398;6.564;2023-09-08T01:02:05;21.80;69.50
53962;DHT22;39868;53.398;6.564;2023-09-08T01:04:32;21.80;69.50
53962;DHT22;39868;53.398;6.564;2023-09-08T01:07:01;21.80;69.50
53962;DHT22;39868;53.398;6.564;2023-09-08T01:09:29;21.80;69.60
53962;DHT22;39868;53.398;6.564;2023-09-08T01:11:57;21.80;69.70
53962;DHT22;39868;53.398;6.564;2023-09-08T01:14:29;21.70;69.70
53962;DHT22;39868;53.398;6.564;2023-09-08T01:16:57;21.70;69.70
53962;DHT22;39868;53.398;6.564;2023-09-08T01:19:25;21.70;69.70
53962;DHT22;39868;53.398;6.564;2023-09-08T01:25:24;21.60;69.50
53962;DHT22;39868;53.398;6.564;2023-09-08T01:27:54;21.60;69.80
53962;DHT22;39868;53.398;6.564;2023-09-08T01:30:23;21.60;69.90
53962;DHT22;39868;53.398;6.564;2023-09-08T01:32:52;21.50;69.80
53962;DHT22;39868;53.398;6.564;2023-09-08T01:35:21;21.50;69.80
53962;DHT22;39868;53.398;6.564;2023-09-08T01:37:49;21.50;69.90
53962;DHT22;39868;53.398;6.564;2023-09-08T01:40:16;21.50;70.00
53962;DHT22;39868;53.398;6.564;2023-09-08T01:42:47;21.40;69.90
53962;DHT22;39868;53.398;6.564;2023-09-08T01:45:15;21.40;69.90
53962;DHT22;39868;53.398;6.564;2023-09-08T01:47:43;21.40;69.90
53962;DHT22;39868;53.398;6.564;2023-09-08T01:50:10;21.40;70.00
53962;DHT22;39868;53.398;6.564;2023-09-08T01:52:38;21.40;70.00
53962;DHT22;39868;53.398;6.564;2023-09-08T01:55:05;21.30;70.10
53962;DHT22;39868;53.398;6.564;2023-09-08T01:57:35;21.30;70.10
53962;DHT22;39868;53.398;6.564;2023-09-08T02:00:02;21.40;70.20
53962;DHT22;39868;53.398;6.564;2023-09-08T02:02:38;21.30;70.10
53962;DHT22;39868;53.398;6.564;2023-09-08T02:05:06;21.30;70.20
53962;DHT22;39868;53.398;6.564;2023-09-08T02:07:35;21.20;70.20
53962;DHT22;39868;53.398;6.564;2023-09-08T02:10:03;21.20;70.20
53962;DHT22;39868;53.398;6.564;2023-09-08T02:12:30;21.20;70.30
53962;DHT22;39868;53.398;6.564;2023-09-08T02:14:57;21.20;70.30
53962;DHT22;39868;53.398;6.564;2023-09-08T02:17:25;21.10;70.30
53962;DHT22;39868;53.398;6.564;2023-09-08T02:19:52;21.10;70.40
53962;DHT22;39868;53.398;6.564;2023-09-08T02:22:20;21.10;70.40
53962;DHT22;39868;53.398;6.564;2023-09-08T02:24:47;21.00;70.30
53962;DHT22;39868;53.398;6.564;2023-09-08T02:27:15;21.00;70.40
53962;DHT22;39868;53.398;6.564;2023-09-08T02:29:42;21.00;70.40
53962;DHT22;39868;53.398;6.564;2023-09-08T02:32:10;20.90;70.30
53962;DHT22;39868;53.398;6.564;2023-09-08T02:34:37;20.90;70.30
53962;DHT22;39868;53.398;6.564;2023-09-08T02:37:06;20.80;70.30
53962;DHT22;39868;53.398;6.564;2023-09-08T02:39:34;20.80;70.30
53962;DHT22;39868;53.398;6.564;2023-09-08T02:42:03;20.80;70.40
53962;DHT22;39868;53.398;6.564;2023-09-08T02:44:32;20.70;70.40
53962;DHT22;39868;53.398;6.564;2023-09-08T02:46:59;20.70;70.50
53962;DHT22;39868;53.398;6.564;2023-09-08T02:49:27;20.60;70.50
53962;DHT22;39868;53.398;6.564;2023-09-08T02:51:54;20.60;70.70
53962;DHT22;39868;53.398;6.564;2023-09-08T02:54:22;20.50;70.60
53962;DHT22;39868;53.398;6.564;2023-09-08T02:56:49;20.50;70.70
53962;DHT22;39868;53.398;6.564;2023-09-08T02:59:18;20.40;70.70
53962;DHT22;39868;53.398;6.564;2023-09-08T03:01:46;20.40;70.80
53962;DHT22;39868;53.398;6.564;2023-09-08T03:04:13;20.30;70.80
53962;DHT22;39868;53.398;6.564;2023-09-08T03:06:41;20.30;70.80
53962;DHT22;39868;53.398;6.564;2023-09-08T03:09:09;20.30;70.90
53962;DHT22;39868;53.398;6.564;2023-09-08T03:11:36;20.20;70.90
53962;DHT22;39868;53.398;6.564;2023-09-08T03:14:06;20.20;71.00
53962;DHT22;39868;53.398;6.564;2023-09-08T03:16:33;20.10;71.00
53962;DHT22;39868;53.398;6.564;2023-09-08T03:19:03;20.10;71.10
53962;DHT22;39868;53.398;6.564;2023-09-08T03:21:31;20.10;71.20
53962;DHT22;39868;53.398;6.564;2023-09-08T03:23:58;20.00;71.40
53962;DHT22;39868;53.398;6.564;2023-09-08T03:26:26;20.00;71.50
53962;DHT22;39868;53.398;6.564;2023-09-08T03:28:53;19.90;71.50
53962;DHT22;39868;53.398;6.564;2023-09-08T03:31:21;19.90;71.60
53962;DHT22;39868;53.398;6.564;2023-09-08T03:33:48;19.90;71.70
53962;DHT22;39868;53.398;6.564;2023-09-08T03:36:16;19.90;71.80
53962;DHT22;39868;53.398;6.564;2023-09-08T03:38:45;19.90;71.90
53962;DHT22;39868;53.398;6.564;2023-09-08T03:41:15;19.90;72.00
53962;DHT22;39868;53.398;6.564;2023-09-08T03:43:42;19.80;72.00
53962;DHT22;39868;53.398;6.564;2023-09-08T03:46:09;19.80;72.00
53962;DHT22;39868;53.398;6.564;2023-09-08T03:48:37;19.80;72.00
53962;DHT22;39868;53.398;6.564;2023-09-08T03:51:05;19.80;72.00
53962;DHT22;39868;53.398;6.564;2023-09-08T03:53:32;19.80;72.00
53962;DHT22;39868;53.398;6.564;2023-09-08T03:56:00;19.80;72.00
53962;DHT22;39868;53.398;6.564;2023-09-08T03:58:28;19.70;72.00
53962;DHT22;39868;53.398;6.564;2023-09-08T04:00:56;19.80;72.00
53962;DHT22;39868;53.398;6.564;2023-09-08T04:03:23;19.70;72.00
53962;DHT22;39868;53.398;6.564;2023-09-08T04:05:51;19.70;72.10
53962;DHT22;39868;53.398;6.564;2023-09-08T04:08:18;19.70;72.20
53962;DHT22;39868;53.398;6.564;2023-09-08T04:10:46;19.70;72.20
53962;DHT22;39868;53.398;6.564;2023-09-08T04:13:13;19.60;72.20
53962;DHT22;39868;53.398;6.564;2023-09-08T04:15:40;19.60;72.30
53962;DHT22;39868;53.398;6.564;2023-09-08T04:18:08;19.60;72.30
53962;DHT22;39868;53.398;6.564;2023-09-08T04:20:36;19.50;72.30
53962;DHT22;39868;53.398;6.564;2023-09-08T04:23:03;19.50;72.40
53962;DHT22;39868;53.398;6.564;2023-09-08T04:25:31;19.50;72.40
53962;DHT22;39868;53.398;6.564;2023-09-08T04:27:58;19.50;72.50
53962;DHT22;39868;53.398;6.564;2023-09-08T04:30:26;19.50;72.60
53962;DHT22;39868;53.398;6.564;2023-09-08T04:32:54;19.40;72.60
53962;DHT22;39868;53.398;6.564;2023-09-08T04:35:21;19.50;72.70
53962;DHT22;39868;53.398;6.564;2023-09-08T04:37:50;19.40;72.60
53962;DHT22;39868;53.398;6.564;2023-09-08T04:40:17;19.40;72.60
53962;DHT22;39868;53.398;6.564;2023-09-08T04:42:45;19.40;72.60
53962;DHT22;39868;53.398;6.564;2023-09-08T04:45:12;19.40;72.60
53962;DHT22;39868;53.398;6.564;2023-09-08T04:47:41;19.40;72.60
53962;DHT22;39868;53.398;6.564;2023-09-08T04:50:09;19.30;72.70
53962;DHT22;39868;53.398;6.564;2023-09-08T04:52:36;19.30;72.70
53962;DHT22;39868;53.398;6.564;2023-09-08T04:55:05;19.30;72.80
53962;DHT22;39868;53.398;6.564;2023-09-08T04:57:33;19.20;72.80
53962;DHT22;39868;53.398;6.564;2023-09-08T05:00:01;19.20;72.80
53962;DHT22;39868;53.398;6.564;2023-09-08T05:02:29;19.20;72.80
53962;DHT22;39868;53.398;6.564;2023-09-08T05:04:57;19.20;72.90
53962;DHT22;39868;53.398;6.564;2023-09-08T05:07:25;19.10;72.90
53962;DHT22;39868;53.398;6.564;2023-09-08T05:09:53;19.10;73.00
53962;DHT22;39868;53.398;6.564;2023-09-08T05:12:26;19.10;73.00
53962;DHT22;39868;53.398;6.564;2023-09-08T05:14:54;19.10;73.10
53962;DHT22;39868;53.398;6.564;2023-09-08T05:17:24;19.10;73.30
53962;DHT22;39868;53.398;6.564;2023-09-08T05:19:51;19.00;73.40
53962;DHT22;39868;53.398;6.564;2023-09-08T05:22:19;19.00;73.50
53962;DHT22;39868;53.398;6.564;2023-09-08T05:24:48;19.00;73.50
53962;DHT22;39868;53.398;6.564;2023-09-08T05:27:16;19.00;73.60
53962;DHT22;39868;53.398;6.564;2023-09-08T05:29:44;19.00;73.70
53962;DHT22;39868;53.398;6.564;2023-09-08T05:32:12;19.00;73.80
53962;DHT22;39868;53.398;6.564;2023-09-08T05:34:39;19.00;73.90
53962;DHT22;39868;53.398;6.564;2023-09-08T05:37:07;19.00;74.00
53962;DHT22;39868;53.398;6.564;2023-09-08T05:39:36;19.00;74.00
53962;DHT22;39868;53.398;6.564;2023-09-08T05:42:04;19.00;74.20
53962;DHT22;39868;53.398;6.564;2023-09-08T05:44:33;19.00;74.30
53962;DHT22;39868;53.398;6.564;2023-09-08T05:47:00;19.00;74.40
53962;DHT22;39868;53.398;6.564;2023-09-08T05:49:28;19.10;74.60
53962;DHT22;39868;53.398;6.564;2023-09-08T05:51:55;19.10;74.70
53962;DHT22;39868;53.398;6.564;2023-09-08T05:54:24;19.10;74.80
53962;DHT22;39868;53.398;6.564;2023-09-08T05:56:53;19.10;74.90
53962;DHT22;39868;53.398;6.564;2023-09-08T05:59:20;19.20;75.00
53962;DHT22;39868;53.398;6.564;2023-09-08T06:01:48;19.20;75.10
53962;DHT22;39868;53.398;6.564;2023-09-08T06:04:15;19.30;75.40
53962;DHT22;39868;53.398;6.564;2023-09-08T06:06:43;19.30;75.40
53962;DHT22;39868;53.398;6.564;2023-09-08T06:09:10;19.30;75.50
53962;DHT22;39868;53.398;6.564;2023-09-08T06:11:40;19.40;75.60
53962;DHT22;39868;53.398;6.564;2023-09-08T06:14:07;19.50;75.80
53962;DHT22;39868;53.398;6.564;2023-09-08T06:16:38;19.50;75.80
53962;DHT22;39868;53.398;6.564;2023-09-08T06:19:08;19.60;75.90
53962;DHT22;39868;53.398;6.564;2023-09-08T06:21:35;19.70;76.00
53962;DHT22;39868;53.398;6.564;2023-09-08T06:24:03;19.70;76.00
53962;DHT22;39868;53.398;6.564;2023-09-08T06:26:31;19.80;76.00
53962;DHT22;39868;53.398;6.564;2023-09-08T06:28:59;19.90;76.10
53962;DHT22;39868;53.398;6.564;2023-09-08T06:31:27;20.00;76.20
53962;DHT22;39868;53.398;6.564;2023-09-08T06:33:54;20.10;76.30
53962;DHT22;39868;53.398;6.564;2023-09-08T06:36:22;20.20;76.20
53962;DHT22;39868;53.398;6.564;2023-09-08T06:38:51;20.20;76.80
53962;DHT22;39868;53.398;6.564;2023-09-08T06:41:19;20.30;76.20
53962;DHT22;39868;53.398;6.564;2023-09-08T06:43:47;20.40;76.20
53962;DHT22;39868;53.398;6.564;2023-09-08T06:46:20;20.50;76.10
53962;DHT22;39868;53.398;6.564;2023-09-08T06:48:48;20.50;76.10
53962;DHT22;39868;53.398;6.564;2023-09-08T06:51:15;20.60;76.00
53962;DHT22;39868;53.398;6.564;2023-09-08T06:53:43;20.70;76.00
53962;DHT22;39868;53.398;6.564;2023-09-08T06:56:12;20.80;76.00
53962;DHT22;39868;53.398;6.564;2023-09-08T06:58:39;20.80;75.90
53962;DHT22;39868;53.398;6.564;2023-09-08T07:01:07;20.90;76.00
53962;DHT22;39868;53.398;6.564;2023-09-08T07:03:35;21.00;76.00
53962;DHT22;39868;53.398;6.564;2023-09-08T07:06:07;21.10;76.10
53962;DHT22;39868;53.398;6.564;2023-09-08T07:08:35;21.20;76.00
53962;DHT22;39868;53.398;6.564;2023-09-08T07:11:04;21.20;75.90
53962;DHT22;39868;53.398;6.564;2023-09-08T07:13:32;21.30;76.00
53962;DHT22;39868;53.398;6.564;2023-09-08T07:16:00;21.40;75.80
53962;DHT22;39868;53.398;6.564;2023-09-08T07:18:28;21.50;75.80
53962;DHT22;39868;53.398;6.564;2023-09-08T07:20:55;21.60;75.90
53962;DHT22;39868;53.398;6.564;2023-09-08T07:23:23;21.70;75.90
53962;DHT22;39868;53.398;6.564;2023-09-08T07:25:51;21.70;75.70
53962;DHT22;39868;53.398;6.564;2023-09-08T07:28:22;21.80;75.70
53962;DHT22;39868;53.398;6.564;2023-09-08T07:30:52;22.00;75.70
53962;DHT22;39868;53.398;6.564;2023-09-08T07:33:20;22.00;75.80
53962;DHT22;39868;53.398;6.564;2023-09-08T07:35:50;22.10;75.60
53962;DHT22;39868;53.398;6.564;2023-09-08T07:38:18;22.20;75.50
53962;DHT22;39868;53.398;6.564;2023-09-08T07:40:45;22.30;75.60
53962;DHT22;39868;53.398;6.564;2023-09-08T07:43:12;22.40;75.50
53962;DHT22;39868;53.398;6.564;2023-09-08T07:45:41;22.50;75.40
53962;DHT22;39868;53.398;6.564;2023-09-08T07:48:08;22.60;75.40
53962;DHT22;39868;53.398;6.564;2023-09-08T07:50:36;22.70;75.40
53962;DHT22;39868;53.398;6.564;2023-09-08T07:53:04;22.80;75.20
53962;DHT22;39868;53.398;6.564;2023-09-08T07:55:31;22.90;75.00
53962;DHT22;39868;53.398;6.564;2023-09-08T07:58:00;23.00;75.10
53962;DHT22;39868;53.398;6.564;2023-09-08T08:00:28;23.10;74.90
53962;DHT22;39868;53.398;6.564;2023-09-08T08:02:56;23.20;74.90
53962;DHT22;39868;53.398;6.564;2023-09-08T08:05:24;23.30;74.80
53962;DHT22;39868;53.398;6.564;2023-09-08T08:07:52;23.40;75.00
53962;DHT22;39868;53.398;6.564;2023-09-08T08:10:19;23.50;75.40
53962;DHT22;39868;53.398;6.564;2023-09-08T08:12:47;23.60;74.70
53962;DHT22;39868;53.398;6.564;2023-09-08T08:15:14;23.70;74.70
53962;DHT22;39868;53.398;6.564;2023-09-08T08:17:42;23.80;74.50
53962;DHT22;39868;53.398;6.564;2023-09-08T08:20:11;23.90;74.50
53962;DHT22;39868;53.398;6.564;2023-09-08T08:22:45;24.00;74.80
53962;DHT22;39868;53.398;6.564;2023-09-08T08:25:13;24.10;74.80
53962;DHT22;39868;53.398;6.564;2023-09-08T08:27:41;24.30;74.80
53962;DHT22;39868;53.398;6.564;2023-09-08T08:30:09;24.40;74.60
53962;DHT22;39868;53.398;6.564;2023-09-08T08:32:38;24.50;74.10
53962;DHT22;39868;53.398;6.564;2023-09-08T08:35:06;24.60;74.30
53962;DHT22;39868;53.398;6.564;2023-09-08T08:37:34;24.70;74.20
53962;DHT22;39868;53.398;6.564;2023-09-08T08:40:02;24.90;74.40
53962;DHT22;39868;53.398;6.564;2023-09-08T08:42:31;25.00;74.20
53962;DHT22;39868;53.398;6.564;2023-09-08T08:45:00;25.10;74.40
53962;DHT22;39868;53.398;6.564;2023-09-08T08:47:28;25.20;74.10
53962;DHT22;39868;53.398;6.564;2023-09-08T08:49:58;25.30;73.70
53962;DHT22;39868;53.398;6.564;2023-09-08T08:52:26;25.50;74.00
53962;DHT22;39868;53.398;6.564;2023-09-08T08:54:54;25.50;74.00
53962;DHT22;39868;53.398;6.564;2023-09-08T08:57:22;25.70;73.70
53962;DHT22;39868;53.398;6.564;2023-09-08T08:59:50;25.80;73.50
53962;DHT22;39868;53.398;6.564;2023-09-08T09:02:19;25.90;73.40
53962;DHT22;39868;53.398;6.564;2023-09-08T09:04:46;26.00;73.50
53962;DHT22;39868;53.398;6.564;2023-09-08T09:07:14;26.10;73.00
53962;DHT22;39868;53.398;6.564;2023-09-08T09:09:42;26.20;73.20
53962;DHT22;39868;53.398;6.564;2023-09-08T09:12:10;26.30;73.30
53962;DHT22;39868;53.398;6.564;2023-09-08T09:14:37;26.40;73.20
53962;DHT22;39868;53.398;6.564;2023-09-08T09:17:04;26.50;72.70
53962;DHT22;39868;53.398;6.564;2023-09-08T09:19:32;26.60;72.00
53962;DHT22;39868;53.398;6.564;2023-09-08T09:22:00;26.70;71.90
53962;DHT22;39868;53.398;6.564;2023-09-08T09:24:38;26.80;72.10
53962;DHT22;39868;53.398;6.564;2023-09-08T09:27:15;26.90;71.30
53962;DHT22;39868;53.398;6.564;2023-09-08T09:29:50;27.00;71.40
53962;DHT22;39868;53.398;6.564;2023-09-08T09:32:23;27.10;71.50
53962;DHT22;39868;53.398;6.564;2023-09-08T09:34:52;27.30;70.90
53962;DHT22;39868;53.398;6.564;2023-09-08T09:37:23;27.40;70.60
53962;DHT22;39868;53.398;6.564;2023-09-08T09:39:54;27.40;70.50
53962;DHT22;39868;53.398;6.564;2023-09-08T09:42:22;27.50;70.40
53962;DHT22;39868;53.398;6.564;2023-09-08T09:44:51;27.60;70.60
53962;DHT22;39868;53.398;6.564;2023-09-08T09:47:19;27.70;70.60
53962;DHT22;39868;53.398;6.564;2023-09-08T09:49:48;27.90;70.60
53962;DHT22;39868;53.398;6.564;2023-09-08T09:52:23;28.00;70.40
53962;DHT22;39868;53.398;6.564;2023-09-08T09:54:55;28.10;70.20
53962;DHT22;39868;53.398;6.564;2023-09-08T09:57:24;28.20;70.00
53962;DHT22;39868;53.398;6.564;2023-09-08T09:59:53;28.30;70.10
53962;DHT22;39868;53.398;6.564;2023-09-08T10:02:22;28.40;69.30
53962;DHT22;39868;53.398;6.564;2023-09-08T10:04:50;28.50;69.20
53962;DHT22;39868;53.398;6.564;2023-09-08T10:07:18;28.70;68.80
53962;DHT22;39868;53.398;6.564;2023-09-08T10:09:47;28.80;69.10
53962;DHT22;39868;53.398;6.564;2023-09-08T10:12:16;28.90;69.00
53962;DHT22;39868;53.398;6.564;2023-09-08T10:14:49;28.90;68.50
53962;DHT22;39868;53.398;6.564;2023-09-08T10:17:23;29.10;68.90
53962;DHT22;39868;53.398;6.564;2023-09-08T10:19:57;29.20;68.00
53962;DHT22;39868;53.398;6.564;2023-09-08T10:22:30;29.30;67.80
53962;DHT22;39868;53.398;6.564;2023-09-08T10:25:03;29.40;67.70
53962;DHT22;39868;53.398;6.564;2023-09-08T10:27:33;29.50;67.20
53962;DHT22;39868;53.398;6.564;2023-09-08T10:30:02;29.60;67.10
53962;DHT22;39868;53.398;6.564;2023-09-08T10:32:35;29.70;67.10
53962;DHT22;39868;53.398;6.564;2023-09-08T10:35:05;29.80;67.20
53962;DHT22;39868;53.398;6.564;2023-09-08T10:37:33;29.90;66.70
53962;DHT22;39868;53.398;6.564;2023-09-08T10:40:20;30.00;66.60
53962;DHT22;39868;53.398;6.564;2023-09-08T10:42:48;30.10;67.40
53962;DHT22;39868;53.398;6.564;2023-09-08T10:45:18;30.20;66.60
53962;DHT22;39868;53.398;6.564;2023-09-08T10:50:22;30.30;66.00
53962;DHT22;39868;53.398;6.564;2023-09-08T10:53:12;30.40;65.50
53962;DHT22;39868;53.398;6.564;2023-09-08T10:55:52;30.40;65.70
53962;DHT22;39868;53.398;6.564;2023-09-08T10:58:36;30.60;64.90
53962;DHT22;39868;53.398;6.564;2023-09-08T11:01:06;30.60;67.30
53962;DHT22;39868;53.398;6.564;2023-09-08T11:06:05;30.80;64.50
53962;DHT22;39868;53.398;6.564;2023-09-08T11:08:33;30.80;64.60
53962;DHT22;39868;53.398;6.564;2023-09-08T11:11:02;30.90;64.30
53962;DHT22;39868;53.398;6.564;2023-09-08T11:13:31;31.00;64.60
53962;DHT22;39868;53.398;6.564;2023-09-08T11:15:59;31.10;64.40
53962;DHT22;39868;53.398;6.564;2023-09-08T11:18:31;31.10;64.20
53962;DHT22;39868;53.398;6.564;2023-09-08T11:21:01;31.20;63.90
53962;DHT22;39868;53.398;6.564;2023-09-08T11:23:29;31.20;64.00
53962;DHT22;39868;53.398;6.564;2023-09-08T11:25:59;31.30;64.00
53962;DHT22;39868;53.398;6.564;2023-09-08T11:28:27;31.40;63.70
53962;DHT22;39868;53.398;6.564;2023-09-08T11:30:55;31.40;63.60
53962;DHT22;39868;53.398;6.564;2023-09-08T11:33:24;31.50;63.60
53962;DHT22;39868;53.398;6.564;2023-09-08T11:35:55;31.60;63.70
53962;DHT22;39868;53.398;6.564;2023-09-08T11:38:28;31.60;63.30
53962;DHT22;39868;53.398;6.564;2023-09-08T11:40:57;31.70;63.30
53962;DHT22;39868;53.398;6.564;2023-09-08T11:43:26;31.80;65.30
53962;DHT22;39868;53.398;6.564;2023-09-08T11:45:55;31.90;62.90
53962;DHT22;39868;53.398;6.564;2023-09-08T11:48:24;32.00;62.70
53962;DHT22;39868;53.398;6.564;2023-09-08T11:50:55;32.10;62.00
53962;DHT22;39868;53.398;6.564;2023-09-08T11:53:23;32.10;61.80
53962;DHT22;39868;53.398;6.564;2023-09-08T11:55:51;32.30;62.20
53962;DHT22;39868;53.398;6.564;2023-09-08T11:58:19;32.40;62.50
53962;DHT22;39868;53.398;6.564;2023-09-08T12:00:48;32.40;61.70
53962;DHT22;39868;53.398;6.564;2023-09-08T12:03:16;32.50;61.90
53962;DHT22;39868;53.398;6.564;2023-09-08T12:05:45;32.60;61.40
53962;DHT22;39868;53.398;6.564;2023-09-08T12:08:17;32.70;61.20
53962;DHT22;39868;53.398;6.564;2023-09-08T12:10:45;32.80;61.10
53962;DHT22;39868;53.398;6.564;2023-09-08T12:13:12;32.90;60.70
53962;DHT22;39868;53.398;6.564;2023-09-08T12:15:42;33.00;60.80
53962;DHT22;39868;53.398;6.564;2023-09-08T12:18:12;33.00;60.10
53962;DHT22;39868;53.398;6.564;2023-09-08T12:20:42;33.10;60.20
53962;DHT22;39868;53.398;6.564;2023-09-08T12:23:21;33.20;62.50
53962;DHT22;39868;53.398;6.564;2023-09-08T12:25:51;33.20;59.50
53962;DHT22;39868;53.398;6.564;2023-09-08T12:28:21;33.20;59.20
53962;DHT22;39868;53.398;6.564;2023-09-08T12:30:50;33.30;58.20
53962;DHT22;39868;53.398;6.564;2023-09-08T12:33:17;33.30;58.60
53962;DHT22;39868;53.398;6.564;2023-09-08T12:35:49;33.40;58.60
53962;DHT22;39868;53.398;6.564;2023-09-08T12:38:18;33.40;57.80
53962;DHT22;39868;53.398;6.564;2023-09-08T12:40:46;33.40;58.10
53962;DHT22;39868;53.398;6.564;2023-09-08T12:43:13;33.50;58.00
53962;DHT22;39868;53.398;6.564;2023-09-08T12:45:55;33.50;58.00
53962;DHT22;39868;53.398;6.564;2023-09-08T12:48:24;33.50;57.50
53962;DHT22;39868;53.398;6.564;2023-09-08T12:50:51;33.60;57.50
53962;DHT22;39868;53.398;6.564;2023-09-08T12:53:19;33.60;57.50
53962;DHT22;39868;53.398;6.564;2023-09-08T12:55:47;33.60;57.40
53962;DHT22;39868;53.398;6.564;2023-09-08T12:58:16;33.60;57.40
53962;DHT22;39868;53.398;6.564;2023-09-08T13:00:44;33.60;57.20
53962;DHT22;39868;53.398;6.564;2023-09-08T13:03:11;33.60;57.10
53962;DHT22;39868;53.398;6.564;2023-09-08T13:05:39;33.70;57.10
53962;DHT22;39868;53.398;6.564;2023-09-08T13:08:07;33.70;57.00
53962;DHT22;39868;53.398;6.564;2023-09-08T13:10:34;33.70;56.60
53962;DHT22;39868;53.398;6.564;2023-09-08T13:13:02;33.70;56.40
53962;DHT22;39868;53.398;6.564;2023-09-08T13:15:30;33.80;56.30
53962;DHT22;39868;53.398;6.564;2023-09-08T13:17:57;33.80;56.50
53962;DHT22;39868;53.398;6.564;2023-09-08T13:20:25;33.80;56.60
53962;DHT22;39868;53.398;6.564;2023-09-08T13:22:54;33.80;56.10
53962;DHT22;39868;53.398;6.564;2023-09-08T13:25:22;33.80;55.70
53962;DHT22;39868;53.398;6.564;2023-09-08T13:27:50;33.90;55.90
53962;DHT22;39868;53.398;6.564;2023-09-08T13:30:17;33.90;56.20
53962;DHT22;39868;53.398;6.564;2023-09-08T13:32:46;33.90;55.60
53962;DHT22;39868;53.398;6.564;2023-09-08T13:35:13;33.90;55.30
53962;DHT22;39868;53.398;6.564;2023-09-08T13:37:41;33.90;55.40
53962;DHT22;39868;53.398;6.564;2023-09-08T13:40:09;33.90;55.10
53962;DHT22;39868;53.398;6.564;2023-09-08T13:42:37;33.90;54.70
53962;DHT22;39868;53.398;6.564;2023-09-08T13:45:05;33.90;54.50
53962;DHT22;39868;53.398;6.564;2023-09-08T13:47:32;33.90;54.40
53962;DHT22;39868;53.398;6.564;2023-09-08T13:50:00;33.90;54.40
53962;DHT22;39868;53.398;6.564;2023-09-08T13:52:32;33.90;54.50
53962;DHT22;39868;53.398;6.564;2023-09-08T13:55:04;33.90;54.00
53962;DHT22;39868;53.398;6.564;2023-09-08T13:57:52;33.90;53.80
53962;DHT22;39868;53.398;6.564;2023-09-08T14:00:22;33.90;53.90
53962;DHT22;39868;53.398;6.564;2023-09-08T14:02:51;33.90;53.20
53962;DHT22;39868;53.398;6.564;2023-09-08T14:05:25;33.90;53.30
53962;DHT22;39868;53.398;6.564;2023-09-08T14:07:57;33.90;53.40
53962;DHT22;39868;53.398;6.564;2023-09-08T14:10:41;33.90;53.20
53962;DHT22;39868;53.398;6.564;2023-09-08T14:13:24;33.90;53.10
53962;DHT22;39868;53.398;6.564;2023-09-08T14:15:51;33.90;53.30
53962;DHT22;39868;53.398;6.564;2023-09-08T14:18:19;33.90;52.80
53962;DHT22;39868;53.398;6.564;2023-09-08T14:20:49;33.90;52.70
53962;DHT22;39868;53.398;6.564;2023-09-08T14:23:16;33.90;52.90
53962;DHT22;39868;53.398;6.564;2023-09-08T14:25:43;33.90;53.10
53962;DHT22;39868;53.398;6.564;2023-09-08T14:28:11;33.90;52.90
53962;DHT22;39868;53.398;6.564;2023-09-08T14:30:38;33.90;54.90
53962;DHT22;39868;53.398;6.564;2023-09-08T14:33:07;33.90;55.00
53962;DHT22;39868;53.398;6.564;2023-09-08T14:35:35;33.90;55.20
53962;DHT22;39868;53.398;6.564;2023-09-08T14:38:04;33.80;55.00
53962;DHT22;39868;53.398;6.564;2023-09-08T14:40:32;33.80;54.90
53962;DHT22;39868;53.398;6.564;2023-09-08T14:42:59;33.90;54.70
53962;DHT22;39868;53.398;6.564;2023-09-08T14:45:27;33.90;54.80
53962;DHT22;39868;53.398;6.564;2023-09-08T14:47:54;33.90;54.70
53962;DHT22;39868;53.398;6.564;2023-09-08T14:50:23;34.00;54.80
53962;DHT22;39868;53.398;6.564;2023-09-08T14:52:50;34.10;54.80
53962;DHT22;39868;53.398;6.564;2023-09-08T14:55:17;34.10;54.80
53962;DHT22;39868;53.398;6.564;2023-09-08T14:57:45;34.20;54.80
53962;DHT22;39868;53.398;6.564;2023-09-08T15:00:12;34.30;54.80
53962;DHT22;39868;53.398;6.564;2023-09-08T15:02:40;34.40;54.70
53962;DHT22;39868;53.398;6.564;2023-09-08T15:05:08;34.40;54.60
53962;DHT22;39868;53.398;6.564;2023-09-08T15:07:35;34.50;54.50
53962;DHT22;39868;53.398;6.564;2023-09-08T15:10:02;34.50;54.40
53962;DHT22;39868;53.398;6.564;2023-09-08T15:12:31;34.60;54.20
53962;DHT22;39868;53.398;6.564;2023-09-08T15:14:58;34.70;54.20
53962;DHT22;39868;53.398;6.564;2023-09-08T15:17:25;34.80;54.20
53962;DHT22;39868;53.398;6.564;2023-09-08T15:19:53;34.80;54.20
53962;DHT22;39868;53.398;6.564;2023-09-08T15:22:20;34.90;54.10
53962;DHT22;39868;53.398;6.564;2023-09-08T15:24:47;34.90;54.10
53962;DHT22;39868;53.398;6.564;2023-09-08T15:27:14;35.00;54.00
53962;DHT22;39868;53.398;6.564;2023-09-08T15:29:41;35.10;54.00
53962;DHT22;39868;53.398;6.564;2023-09-08T15:32:09;35.20;54.10
53962;DHT22;39868;53.398;6.564;2023-09-08T15:34:36;35.20;53.80
53962;DHT22;39868;53.398;6.564;2023-09-08T15:37:03;35.20;53.60
53962;DHT22;39868;53.398;6.564;2023-09-08T15:39:30;35.30;53.50
53962;DHT22;39868;53.398;6.564;2023-09-08T15:41:58;35.30;53.40
53962;DHT22;39868;53.398;6.564;2023-09-08T15:44:25;35.30;53.40
53962;DHT22;39868;53.398;6.564;2023-09-08T15:46:52;35.30;53.10